sensor_id;sensor_type;location;lat;lon;timestamp;pressure;altitude;pressure_sealevel;temperature;humidity
50011;BME280;35899;50.352;19.390;2023-07-16T00:01:37;97598.23;;;20.96;64.66
50011;BME280;35899;50.352;19.390;2023-07-16T00:04:04;97594.65;;;20.95;64.83
50011;BME280;35899;50.352;19.390;2023-07-16T00:06:31;97592.39;;;20.93;65.03
50011;BME280;35899;50.352;19.390;2023-07-16T00:08:59;97591.29;;;20.92;65.21
50011;BME280;35899;50.352;19.390;2023-07-16T00:11:27;97590.77;;;20.89;65.37
50011;BME280;35899;50.352;19.390;2023-07-16T00:13:53;97595.56;;;20.85;65.40
50011;BME280;35899;50.352;19.390;2023-07-16T00:16:20;97594.80;;;20.80;65.44
50011;BME280;35899;50.352;19.390;2023-07-16T00:18:47;97594.48;;;20.77;65.62
50011;BME280;35899;50.352;19.390;2023-07-16T00:21:14;97592.56;;;20.74;65.63
50011;BME280;35899;50.352;19.390;2023-07-16T00:23:41;97588.75;;;20.70;65.72
50011;BME280;35899;50.352;19.390;2023-07-16T00:26:07;97585.41;;;20.67;65.82
50011;BME280;35899;50.352;19.390;2023-07-16T00:28:34;97581.85;;;20.63;65.80
50011;BME280;35899;50.352;19.390;2023-07-16T00:31:01;97581.88;;;20.58;65.88
50011;BME280;35899;50.352;19.390;2023-07-16T00:33:27;97584.05;;;20.57;66.02
50011;BME280;35899;50.352;19.390;2023-07-16T00:35:54;97579.77;;;20.58;66.23
50011;BME280;35899;50.352;19.390;2023-07-16T00:38:20;97579.18;;;20.54;66.34
50011;BME280;35899;50.352;19.390;2023-07-16T00:40:47;97577.02;;;20.48;66.17
50011;BME280;35899;50.352;19.390;2023-07-16T00:43:14;97574.73;;;20.41;66.30
50011;BME280;35899;50.352;19.390;2023-07-16T00:45:41;97571.96;;;20.31;66.52
50011;BME280;35899;50.352;19.390;2023-07-16T00:48:08;97572.39;;;20.24;66.64
50011;BME280;35899;50.352;19.390;2023-07-16T00:50:34;97574.02;;;20.19;66.90
50011;BME280;35899;50.352;19.390;2023-07-16T00:53:02;97573.55;;;20.18;67.18
50011;BME280;35899;50.352;19.390;2023-07-16T00:55:29;97575.60;;;20.15;67.31
50011;BME280;35899;50.352;19.390;2023-07-16T00:57:57;97573.50;;;20.13;67.40
50011;BME280;35899;50.352;19.390;2023-07-16T01:00:26;97575.04;;;20.14;67.61
50011;BME280;35899;50.352;19.390;2023-07-16T01:02:54;97574.28;;;20.14;67.66
50011;BME280;35899;50.352;19.390;2023-07-16T01:05:21;97570.47;;;20.11;67.63
50011;BME280;35899;50.352;19.390;2023-07-16T01:07:55;97567.42;;;20.08;67.79
50011;BME280;35899;50.352;19.390;2023-07-16T01:10:24;97566.57;;;20.08;68.04
50011;BME280;35899;50.352;19.390;2023-07-16T01:12:53;97563.56;;;20.05;68.10
50011;BME280;35899;50.352;19.390;2023-07-16T01:15:21;97568.30;;;20.01;68.13
50011;BME280;35899;50.352;19.390;2023-07-16T01:17:47;97569.52;;;19.96;68.27
50011;BME280;35899;50.352;19.390;2023-07-16T01:20:14;97566.20;;;19.89;68.22
50011;BME280;35899;50.352;19.390;2023-07-16T01:30:18;97558.39;;;19.81;68.61
50011;BME280;35899;50.352;19.390;2023-07-16T01:32:46;97555.35;;;19.76;68.61
50011;BME280;35899;50.352;19.390;2023-07-16T01:35:12;97553.51;;;19.70;68.73
50011;BME280;35899;50.352;19.390;2023-07-16T01:37:43;97547.20;;;19.64;68.63
50011;BME280;35899;50.352;19.390;2023-07-16T01:40:09;97544.11;;;19.57;68.61
50011;BME280;35899;50.352;19.390;2023-07-16T01:42:36;97542.69;;;19.50;68.88
50011;BME280;35899;50.352;19.390;2023-07-16T01:45:02;97543.88;;;19.46;68.92
50011;BME280;35899;50.352;19.390;2023-07-16T01:47:32;97542.52;;;19.41;68.79
50011;BME280;35899;50.352;19.390;2023-07-16T01:50:02;97546.06;;;19.36;68.93
50011;BME280;35899;50.352;19.390;2023-07-16T01:52:30;97544.44;;;19.33;69.30
50011;BME280;35899;50.352;19.390;2023-07-16T01:54:57;97546.81;;;19.33;69.43
50011;BME280;35899;50.352;19.390;2023-07-16T01:57:23;97547.61;;;19.32;69.69
50011;BME280;35899;50.352;19.390;2023-07-16T01:59:50;97549.38;;;19.32;69.78
50011;BME280;35899;50.352;19.390;2023-07-16T02:02:16;97552.00;;;19.29;69.83
50011;BME280;35899;50.352;19.390;2023-07-16T02:04:44;97552.34;;;19.27;69.90
50011;BME280;35899;50.352;19.390;2023-07-16T02:07:11;97550.09;;;19.27;70.07
50011;BME280;35899;50.352;19.390;2023-07-16T02:09:37;97551.93;;;19.29;70.34
50011;BME280;35899;50.352;19.390;2023-07-16T02:12:04;97551.05;;;19.28;70.34
50011;BME280;35899;50.352;19.390;2023-07-16T02:14:31;97548.86;;;19.25;70.25
50011;BME280;35899;50.352;19.390;2023-07-16T02:16:57;97550.54;;;19.20;70.22
50011;BME280;35899;50.352;19.390;2023-07-16T02:19:24;97549.36;;;19.14;70.34
50011;BME280;35899;50.352;19.390;2023-07-16T02:21:51;97549.64;;;19.10;70.53
50011;BME280;35899;50.352;19.390;2023-07-16T02:24:17;97547.52;;;19.09;70.62
50011;BME280;35899;50.352;19.390;2023-07-16T02:26:43;97540.48;;;19.08;70.60
50011;BME280;35899;50.352;19.390;2023-07-16T02:29:11;97538.98;;;19.05;70.55
50011;BME280;35899;50.352;19.390;2023-07-16T02:31:37;97538.05;;;19.04;70.71
50011;BME280;35899;50.352;19.390;2023-07-16T02:34:04;97537.81;;;19.02;70.77
50011;BME280;35899;50.352;19.390;2023-07-16T02:36:32;97536.70;;;19.01;70.93
50011;BME280;35899;50.352;19.390;2023-07-16T02:38:59;97533.30;;;19.00;70.94
50011;BME280;35899;50.352;19.390;2023-07-16T02:41:25;97537.76;;;18.97;70.86
50011;BME280;35899;50.352;19.390;2023-07-16T02:43:59;97534.95;;;18.88;70.79
50011;BME280;35899;50.352;19.390;2023-07-16T02:46:26;97537.61;;;18.83;70.95
50011;BME280;35899;50.352;19.390;2023-07-16T02:48:54;97537.16;;;18.81;71.01
50011;BME280;35899;50.352;19.390;2023-07-16T02:51:21;97535.78;;;18.84;71.28
50011;BME280;35899;50.352;19.390;2023-07-16T02:53:47;97533.55;;;18.87;71.41
50011;BME280;35899;50.352;19.390;2023-07-16T02:56:14;97532.54;;;18.86;71.45
50011;BME280;35899;50.352;19.390;2023-07-16T02:58:40;97534.38;;;18.85;71.43
50011;BME280;35899;50.352;19.390;2023-07-16T03:01:07;97538.92;;;18.85;71.45
50011;BME280;35899;50.352;19.390;2023-07-16T03:03:33;97542.11;;;18.85;71.42
50011;BME280;35899;50.352;19.390;2023-07-16T03:06:02;97545.37;;;18.82;71.43
50011;BME280;35899;50.352;19.390;2023-07-16T03:08:29;97549.23;;;18.79;71.52
50011;BME280;35899;50.352;19.390;2023-07-16T03:10:55;97547.63;;;18.79;71.59
50011;BME280;35899;50.352;19.390;2023-07-16T03:13:23;97549.02;;;18.81;71.58
50011;BME280;35899;50.352;19.390;2023-07-16T03:15:50;97550.95;;;18.83;71.62
50011;BME280;35899;50.352;19.390;2023-07-16T03:18:17;97544.32;;;18.84;71.57
50011;BME280;35899;50.352;19.390;2023-07-16T03:20:44;97545.69;;;18.86;71.46
50011;BME280;35899;50.352;19.390;2023-07-16T03:23:11;97548.58;;;18.88;71.45
50011;BME280;35899;50.352;19.390;2023-07-16T03:25:38;97552.23;;;18.87;71.39
50011;BME280;35899;50.352;19.390;2023-07-16T03:28:04;97550.75;;;18.88;71.31
50011;BME280;35899;50.352;19.390;2023-07-16T03:30:31;97548.89;;;18.93;71.50
50011;BME280;35899;50.352;19.390;2023-07-16T03:32:57;97545.28;;;19.02;71.53
50011;BME280;35899;50.352;19.390;2023-07-16T03:35:25;97546.67;;;19.13;71.55
50011;BME280;35899;50.352;19.390;2023-07-16T03:37:52;97550.04;;;19.24;71.45
50011;BME280;35899;50.352;19.390;2023-07-16T03:40:22;97547.27;;;19.33;71.36
50011;BME280;35899;50.352;19.390;2023-07-16T03:42:49;97544.55;;;19.43;71.38
50011;BME280;35899;50.352;19.390;2023-07-16T03:45:16;97546.50;;;19.54;71.24
50011;BME280;35899;50.352;19.390;2023-07-16T03:47:42;97548.80;;;19.63;71.03
50011;BME280;35899;50.352;19.390;2023-07-16T03:50:09;97550.05;;;19.71;70.89
50011;BME280;35899;50.352;19.390;2023-07-16T03:52:36;97551.30;;;19.79;70.79
50011;BME280;35899;50.352;19.390;2023-07-16T03:55:02;97552.09;;;19.84;70.56
50011;BME280;35899;50.352;19.390;2023-07-16T03:57:29;97557.13;;;19.94;70.53
50011;BME280;35899;50.352;19.390;2023-07-16T03:59:56;97558.56;;;20.04;70.52
50011;BME280;35899;50.352;19.390;2023-07-16T04:02:23;97562.31;;;20.16;70.38
50011;BME280;35899;50.352;19.390;2023-07-16T04:04:49;97564.45;;;20.28;70.35
50011;BME280;35899;50.352;19.390;2023-07-16T04:07:17;97563.69;;;20.41;70.34
50011;BME280;35899;50.352;19.390;2023-07-16T04:09:43;97561.83;;;20.52;70.23
50011;BME280;35899;50.352;19.390;2023-07-16T04:12:10;97561.59;;;20.60;70.20
50011;BME280;35899;50.352;19.390;2023-07-16T04:14:36;97564.90;;;20.68;70.15
50011;BME280;35899;50.352;19.390;2023-07-16T04:17:03;97566.21;;;20.78;70.27
50011;BME280;35899;50.352;19.390;2023-07-16T04:19:29;97567.59;;;20.90;70.43
50011;BME280;35899;50.352;19.390;2023-07-16T04:21:56;97574.30;;;21.03;70.23
50011;BME280;35899;50.352;19.390;2023-07-16T04:24:22;97575.27;;;21.17;69.93
50011;BME280;35899;50.352;19.390;2023-07-16T04:26:49;97575.33;;;21.31;70.06
50011;BME280;35899;50.352;19.390;2023-07-16T04:29:15;97575.61;;;21.45;70.03
50011;BME280;35899;50.352;19.390;2023-07-16T04:31:42;97578.83;;;21.58;70.04
50011;BME280;35899;50.352;19.390;2023-07-16T04:34:08;97583.11;;;21.68;69.74
50011;BME280;35899;50.352;19.390;2023-07-16T04:36:35;97587.67;;;21.79;69.71
50011;BME280;35899;50.352;19.390;2023-07-16T04:39:01;97589.69;;;21.91;69.35
50011;BME280;35899;50.352;19.390;2023-07-16T04:41:28;97588.29;;;22.00;69.45
50011;BME280;35899;50.352;19.390;2023-07-16T04:43:54;97588.16;;;22.10;69.15
50011;BME280;35899;50.352;19.390;2023-07-16T04:46:21;97590.71;;;22.21;69.05
50011;BME280;35899;50.352;19.390;2023-07-16T04:48:47;97593.08;;;22.33;68.93
50011;BME280;35899;50.352;19.390;2023-07-16T04:51:14;97588.86;;;22.46;68.65
50011;BME280;35899;50.352;19.390;2023-07-16T04:53:40;97592.30;;;22.58;68.63
50011;BME280;35899;50.352;19.390;2023-07-16T04:56:13;97593.61;;;22.64;68.52
50011;BME280;35899;50.352;19.390;2023-07-16T04:58:40;97596.26;;;22.66;68.41
50011;BME280;35899;50.352;19.390;2023-07-16T05:01:10;97601.28;;;22.68;68.42
50011;BME280;35899;50.352;19.390;2023-07-16T05:03:36;97606.74;;;22.74;68.52
50011;BME280;35899;50.352;19.390;2023-07-16T05:06:03;97612.03;;;22.81;68.40
50011;BME280;35899;50.352;19.390;2023-07-16T05:08:30;97610.89;;;22.87;68.31
50011;BME280;35899;50.352;19.390;2023-07-16T05:10:56;97611.34;;;22.93;68.19
50011;BME280;35899;50.352;19.390;2023-07-16T05:13:23;97612.39;;;23.02;68.14
50011;BME280;35899;50.352;19.390;2023-07-16T05:15:49;97614.58;;;23.14;68.05
50011;BME280;35899;50.352;19.390;2023-07-16T05:18:16;97615.16;;;23.23;67.84
50011;BME280;35899;50.352;19.390;2023-07-16T05:20:43;97617.30;;;23.29;67.58
50011;BME280;35899;50.352;19.390;2023-07-16T05:23:09;97617.80;;;23.31;67.30
50011;BME280;35899;50.352;19.390;2023-07-16T05:25:36;97620.85;;;23.38;67.54
50011;BME280;35899;50.352;19.390;2023-07-16T05:28:02;97620.52;;;23.46;67.42
50011;BME280;35899;50.352;19.390;2023-07-16T05:30:29;97620.48;;;23.54;67.42
50011;BME280;35899;50.352;19.390;2023-07-16T05:32:55;97621.07;;;23.60;67.23
50011;BME280;35899;50.352;19.390;2023-07-16T05:35:22;97619.35;;;23.69;67.60
50011;BME280;35899;50.352;19.390;2023-07-16T05:37:50;97619.07;;;23.80;67.43
50011;BME280;35899;50.352;19.390;2023-07-16T05:40:16;97617.27;;;23.91;67.88
50011;BME280;35899;50.352;19.390;2023-07-16T05:42:43;97617.25;;;24.00;68.12
50011;BME280;35899;50.352;19.390;2023-07-16T05:45:09;97622.20;;;24.11;68.18
50011;BME280;35899;50.352;19.390;2023-07-16T05:47:36;97624.99;;;24.18;68.05
50011;BME280;35899;50.352;19.390;2023-07-16T05:50:02;97628.83;;;24.26;67.79
50011;BME280;35899;50.352;19.390;2023-07-16T05:52:30;97629.91;;;24.35;67.99
50011;BME280;35899;50.352;19.390;2023-07-16T05:54:57;97637.91;;;24.45;67.86
50011;BME280;35899;50.352;19.390;2023-07-16T05:57:23;97639.94;;;24.54;67.51
50011;BME280;35899;50.352;19.390;2023-07-16T05:59:49;97635.98;;;24.64;67.49
50011;BME280;35899;50.352;19.390;2023-07-16T06:02:16;97639.28;;;24.75;67.79
50011;BME280;35899;50.352;19.390;2023-07-16T06:04:42;97638.16;;;24.89;67.67
50011;BME280;35899;50.352;19.390;2023-07-16T06:07:09;97642.52;;;24.98;67.29
50011;BME280;35899;50.352;19.390;2023-07-16T06:09:35;97642.98;;;25.09;67.42
50011;BME280;35899;50.352;19.390;2023-07-16T06:12:02;97646.70;;;25.24;67.57
50011;BME280;35899;50.352;19.390;2023-07-16T06:14:28;97655.37;;;25.37;67.21
50011;BME280;35899;50.352;19.390;2023-07-16T06:16:55;97662.60;;;25.49;66.05
50011;BME280;35899;50.352;19.390;2023-07-16T06:19:21;97667.31;;;25.63;65.36
50011;BME280;35899;50.352;19.390;2023-07-16T06:21:48;97672.36;;;25.79;64.98
50011;BME280;35899;50.352;19.390;2023-07-16T06:24:14;97677.34;;;25.93;64.57
50011;BME280;35899;50.352;19.390;2023-07-16T06:26:43;97676.79;;;26.07;64.47
50011;BME280;35899;50.352;19.390;2023-07-16T06:29:09;97680.06;;;26.21;63.84
50011;BME280;35899;50.352;19.390;2023-07-16T06:31:36;97679.04;;;26.35;63.33
50011;BME280;35899;50.352;19.390;2023-07-16T06:34:03;97684.48;;;26.48;62.77
50011;BME280;35899;50.352;19.390;2023-07-16T06:36:29;97694.35;;;26.59;62.47
50011;BME280;35899;50.352;19.390;2023-07-16T06:38:56;97700.68;;;26.69;61.96
50011;BME280;35899;50.352;19.390;2023-07-16T06:41:22;97704.39;;;26.80;61.46
50011;BME280;35899;50.352;19.390;2023-07-16T06:43:49;97712.89;;;26.90;60.11
50011;BME280;35899;50.352;19.390;2023-07-16T06:46:15;97715.31;;;26.99;59.04
50011;BME280;35899;50.352;19.390;2023-07-16T06:48:42;97719.73;;;27.10;58.89
50011;BME280;35899;50.352;19.390;2023-07-16T06:51:09;97720.77;;;27.23;58.38
50011;BME280;35899;50.352;19.390;2023-07-16T06:53:35;97730.92;;;27.34;57.32
50011;BME280;35899;50.352;19.390;2023-07-16T06:56:02;97736.36;;;27.43;56.86
50011;BME280;35899;50.352;19.390;2023-07-16T06:58:31;97734.58;;;27.53;56.10
50011;BME280;35899;50.352;19.390;2023-07-16T07:00:58;97736.27;;;27.63;55.34
50011;BME280;35899;50.352;19.390;2023-07-16T07:03:25;97733.48;;;27.74;55.10
50011;BME280;35899;50.352;19.390;2023-07-16T07:05:52;97732.33;;;27.86;54.91
50011;BME280;35899;50.352;19.390;2023-07-16T07:08:18;97733.19;;;27.93;54.40
50011;BME280;35899;50.352;19.390;2023-07-16T07:10:46;97728.59;;;28.00;54.24
50011;BME280;35899;50.352;19.390;2023-07-16T07:13:12;97735.34;;;28.07;53.52
50011;BME280;35899;50.352;19.390;2023-07-16T07:15:39;97740.60;;;28.10;52.86
50011;BME280;35899;50.352;19.390;2023-07-16T07:18:05;97741.23;;;28.12;52.75
50011;BME280;35899;50.352;19.390;2023-07-16T07:20:32;97745.41;;;28.16;52.44
50011;BME280;35899;50.352;19.390;2023-07-16T07:22:58;97748.16;;;28.21;52.24
50011;BME280;35899;50.352;19.390;2023-07-16T07:25:25;97744.73;;;28.26;51.60
50011;BME280;35899;50.352;19.390;2023-07-16T07:27:51;97746.41;;;28.34;51.75
50011;BME280;35899;50.352;19.390;2023-07-16T07:30:18;97749.40;;;28.43;51.59
50011;BME280;35899;50.352;19.390;2023-07-16T07:32:45;97750.23;;;28.51;51.56
50011;BME280;35899;50.352;19.390;2023-07-16T07:35:11;97746.45;;;28.61;51.20
50011;BME280;35899;50.352;19.390;2023-07-16T07:37:38;97740.64;;;28.68;50.33
50011;BME280;35899;50.352;19.390;2023-07-16T07:40:04;97748.35;;;28.75;50.36
50011;BME280;35899;50.352;19.390;2023-07-16T07:42:31;97746.07;;;28.81;50.37
50011;BME280;35899;50.352;19.390;2023-07-16T07:44:58;97746.70;;;28.91;50.46
50011;BME280;35899;50.352;19.390;2023-07-16T07:47:24;97744.30;;;28.99;49.40
50011;BME280;35899;50.352;19.390;2023-07-16T07:49:52;97738.95;;;29.07;49.42
50011;BME280;35899;50.352;19.390;2023-07-16T07:52:19;97742.11;;;29.11;48.70
50011;BME280;35899;50.352;19.390;2023-07-16T07:54:45;97743.02;;;29.14;48.06
50011;BME280;35899;50.352;19.390;2023-07-16T07:57:12;97744.04;;;29.17;48.31
50011;BME280;35899;50.352;19.390;2023-07-16T07:59:38;97741.38;;;29.27;48.38
50011;BME280;35899;50.352;19.390;2023-07-16T08:02:05;97749.95;;;29.34;48.55
50011;BME280;35899;50.352;19.390;2023-07-16T08:04:32;97747.91;;;29.44;48.24
50011;BME280;35899;50.352;19.390;2023-07-16T08:06:58;97751.02;;;29.52;48.15
50011;BME280;35899;50.352;19.390;2023-07-16T08:09:25;97752.81;;;29.60;48.18
50011;BME280;35899;50.352;19.390;2023-07-16T08:11:52;97754.29;;;29.70;48.00
50011;BME280;35899;50.352;19.390;2023-07-16T08:14:18;97754.73;;;29.74;47.80
50011;BME280;35899;50.352;19.390;2023-07-16T08:16:45;97751.98;;;29.83;48.05
50011;BME280;35899;50.352;19.390;2023-07-16T08:19:11;97754.83;;;30.00;48.35
50011;BME280;35899;50.352;19.390;2023-07-16T08:21:38;97755.76;;;30.00;47.10
50011;BME280;35899;50.352;19.390;2023-07-16T08:24:05;97754.90;;;29.96;47.09
50011;BME280;35899;50.352;19.390;2023-07-16T08:26:32;97756.31;;;30.01;46.94
50011;BME280;35899;50.352;19.390;2023-07-16T08:28:59;97760.98;;;30.01;46.61
50011;BME280;35899;50.352;19.390;2023-07-16T08:31:25;97758.54;;;29.95;46.63
50011;BME280;35899;50.352;19.390;2023-07-16T08:33:52;97755.52;;;29.84;46.61
50011;BME280;35899;50.352;19.390;2023-07-16T08:36:18;97757.85;;;29.82;46.97
50011;BME280;35899;50.352;19.390;2023-07-16T08:38:45;97756.98;;;29.90;47.31
50011;BME280;35899;50.352;19.390;2023-07-16T08:41:12;97758.05;;;29.97;47.52
50011;BME280;35899;50.352;19.390;2023-07-16T08:43:38;97753.55;;;30.08;47.63
50011;BME280;35899;50.352;19.390;2023-07-16T08:46:05;97755.25;;;30.05;47.46
50011;BME280;35899;50.352;19.390;2023-07-16T08:48:32;97757.63;;;30.06;48.06
50011;BME280;35899;50.352;19.390;2023-07-16T08:50:59;97759.58;;;30.27;47.98
50011;BME280;35899;50.352;19.390;2023-07-16T08:53:27;97752.41;;;30.40;47.48
50011;BME280;35899;50.352;19.390;2023-07-16T08:55:55;97755.16;;;30.30;47.13
50011;BME280;35899;50.352;19.390;2023-07-16T08:58:24;97751.96;;;30.25;47.70
50011;BME280;35899;50.352;19.390;2023-07-16T09:00:51;97754.65;;;30.39;48.22
50011;BME280;35899;50.352;19.390;2023-07-16T09:03:18;97751.58;;;30.51;48.03
50011;BME280;35899;50.352;19.390;2023-07-16T09:05:44;97754.91;;;30.60;48.00
50011;BME280;35899;50.352;19.390;2023-07-16T09:08:11;97746.83;;;30.82;47.64
50011;BME280;35899;50.352;19.390;2023-07-16T09:10:39;97747.16;;;30.98;47.30
50011;BME280;35899;50.352;19.390;2023-07-16T09:13:06;97745.90;;;31.06;47.22
50011;BME280;35899;50.352;19.390;2023-07-16T09:15:32;97746.27;;;31.21;47.17
50011;BME280;35899;50.352;19.390;2023-07-16T09:17:59;97746.28;;;31.29;46.93
50011;BME280;35899;50.352;19.390;2023-07-16T09:20:26;97742.98;;;31.30;46.73
50011;BME280;35899;50.352;19.390;2023-07-16T09:22:53;97745.12;;;31.26;46.53
50011;BME280;35899;50.352;19.390;2023-07-16T09:25:24;97742.48;;;31.18;46.59
50011;BME280;35899;50.352;19.390;2023-07-16T09:27:51;97739.23;;;31.19;46.77
50011;BME280;35899;50.352;19.390;2023-07-16T09:30:17;97742.73;;;31.31;47.39
50011;BME280;35899;50.352;19.390;2023-07-16T09:32:44;97747.30;;;31.60;47.56
50011;BME280;35899;50.352;19.390;2023-07-16T09:38:12;97748.52;;;31.74;46.91
50011;BME280;35899;50.352;19.390;2023-07-16T09:40:39;97746.08;;;31.79;46.58
50011;BME280;35899;50.352;19.390;2023-07-16T09:43:06;97736.65;;;31.85;46.32
50011;BME280;35899;50.352;19.390;2023-07-16T09:45:34;97739.68;;;31.87;46.51
50011;BME280;35899;50.352;19.390;2023-07-16T09:48:01;97740.86;;;31.86;46.69
50011;BME280;35899;50.352;19.390;2023-07-16T09:50:29;97745.36;;;31.81;46.59
50011;BME280;35899;50.352;19.390;2023-07-16T09:52:56;97743.38;;;31.95;46.97
50011;BME280;35899;50.352;19.390;2023-07-16T09:55:23;97746.84;;;32.35;47.16
50011;BME280;35899;50.352;19.390;2023-07-16T09:57:55;97748.21;;;32.82;46.52
50011;BME280;35899;50.352;19.390;2023-07-16T10:00:22;97742.17;;;33.27;46.23
50011;BME280;35899;50.352;19.390;2023-07-16T10:02:50;97747.06;;;33.51;44.88
50011;BME280;35899;50.352;19.390;2023-07-16T10:05:23;97745.61;;;33.67;44.97
50011;BME280;35899;50.352;19.390;2023-07-16T10:07:51;97746.92;;;33.95;43.59
50011;BME280;35899;50.352;19.390;2023-07-16T10:10:18;97750.08;;;34.08;43.22
50011;BME280;35899;50.352;19.390;2023-07-16T10:15:35;97745.89;;;34.80;42.13
50011;BME280;35899;50.352;19.390;2023-07-16T10:18:01;97751.45;;;34.91;41.50
50011;BME280;35899;50.352;19.390;2023-07-16T10:22:54;97750.65;;;34.54;41.10
50011;BME280;35899;50.352;19.390;2023-07-16T10:25:22;97746.05;;;34.45;41.03
50011;BME280;35899;50.352;19.390;2023-07-16T10:27:50;97750.20;;;34.47;41.26
50011;BME280;35899;50.352;19.390;2023-07-16T10:30:17;97748.92;;;34.55;41.07
50011;BME280;35899;50.352;19.390;2023-07-16T10:32:44;97743.41;;;35.08;40.87
50011;BME280;35899;50.352;19.390;2023-07-16T10:35:11;97745.08;;;35.73;40.17
50011;BME280;35899;50.352;19.390;2023-07-16T10:37:38;97744.12;;;36.33;39.47
50011;BME280;35899;50.352;19.390;2023-07-16T10:40:05;97744.54;;;36.84;38.70
50011;BME280;35899;50.352;19.390;2023-07-16T10:42:35;97747.20;;;36.77;38.14
50011;BME280;35899;50.352;19.390;2023-07-16T10:45:03;97753.50;;;36.73;38.05
50011;BME280;35899;50.352;19.390;2023-07-16T10:47:32;97752.29;;;37.25;37.85
50011;BME280;35899;50.352;19.390;2023-07-16T10:49:59;97751.48;;;38.01;36.99
50011;BME280;35899;50.352;19.390;2023-07-16T10:52:26;97754.94;;;38.23;36.23
50011;BME280;35899;50.352;19.390;2023-07-16T10:54:53;97757.83;;;38.00;35.93
50011;BME280;35899;50.352;19.390;2023-07-16T10:57:19;97762.44;;;37.52;35.63
50011;BME280;35899;50.352;19.390;2023-07-16T10:59:46;97759.05;;;37.09;35.84
50011;BME280;35899;50.352;19.390;2023-07-16T11:02:13;97756.46;;;36.56;36.22
50011;BME280;35899;50.352;19.390;2023-07-16T11:04:43;97752.15;;;36.26;36.50
50011;BME280;35899;50.352;19.390;2023-07-16T11:07:10;97750.69;;;36.17;36.95
50011;BME280;35899;50.352;19.390;2023-07-16T11:09:41;97752.64;;;35.75;37.21
50011;BME280;35899;50.352;19.390;2023-07-16T11:12:11;97749.21;;;35.93;37.61
50011;BME280;35899;50.352;19.390;2023-07-16T11:14:38;97753.39;;;35.73;37.49
50011;BME280;35899;50.352;19.390;2023-07-16T11:17:05;97756.42;;;35.44;38.31
50011;BME280;35899;50.352;19.390;2023-07-16T11:19:32;97754.41;;;35.19;38.48
50011;BME280;35899;50.352;19.390;2023-07-16T11:22:00;97753.38;;;34.78;38.67
50011;BME280;35899;50.352;19.390;2023-07-16T11:24:26;97753.50;;;34.57;39.60
50011;BME280;35899;50.352;19.390;2023-07-16T11:26:56;97760.39;;;34.28;40.30
50011;BME280;35899;50.352;19.390;2023-07-16T11:29:23;97762.15;;;33.94;39.95
50011;BME280;35899;50.352;19.390;2023-07-16T11:31:52;97763.53;;;33.78;39.84
50011;BME280;35899;50.352;19.390;2023-07-16T11:34:19;97757.94;;;35.02;39.05
50011;BME280;35899;50.352;19.390;2023-07-16T11:36:46;97754.28;;;36.45;37.64
50011;BME280;35899;50.352;19.390;2023-07-16T11:39:17;97752.14;;;37.90;37.06
50011;BME280;35899;50.352;19.390;2023-07-16T11:41:53;97751.77;;;39.11;35.63
50011;BME280;35899;50.352;19.390;2023-07-16T11:44:23;97752.40;;;40.15;34.10
50011;BME280;35899;50.352;19.390;2023-07-16T11:46:49;97753.05;;;41.07;32.94
50011;BME280;35899;50.352;19.390;2023-07-16T11:49:16;97754.75;;;41.88;31.58
50011;BME280;35899;50.352;19.390;2023-07-16T11:51:42;97751.96;;;42.61;31.28
50011;BME280;35899;50.352;19.390;2023-07-16T11:54:09;97742.84;;;43.53;30.49
50011;BME280;35899;50.352;19.390;2023-07-16T11:56:36;97745.32;;;44.41;29.90
50011;BME280;35899;50.352;19.390;2023-07-16T11:59:02;97743.09;;;45.20;28.80
50011;BME280;35899;50.352;19.390;2023-07-16T12:01:29;97745.76;;;45.47;27.26
50011;BME280;35899;50.352;19.390;2023-07-16T12:03:56;97749.20;;;45.38;26.26
50011;BME280;35899;50.352;19.390;2023-07-16T12:06:22;97754.73;;;44.36;26.47
50011;BME280;35899;50.352;19.390;2023-07-16T12:08:49;97755.02;;;44.35;26.25
50011;BME280;35899;50.352;19.390;2023-07-16T12:11:15;97753.11;;;44.05;26.65
50011;BME280;35899;50.352;19.390;2023-07-16T12:13:42;97749.43;;;43.97;26.85
50011;BME280;35899;50.352;19.390;2023-07-16T12:16:09;97752.77;;;42.66;27.64
50011;BME280;35899;50.352;19.390;2023-07-16T12:18:35;97749.90;;;41.30;28.56
50011;BME280;35899;50.352;19.390;2023-07-16T12:21:02;97746.83;;;40.31;29.46
50011;BME280;35899;50.352;19.390;2023-07-16T12:23:29;97747.67;;;41.15;28.92
50011;BME280;35899;50.352;19.390;2023-07-16T12:25:55;97748.81;;;42.82;28.23
50011;BME280;35899;50.352;19.390;2023-07-16T12:28:22;97747.14;;;44.15;27.24
50011;BME280;35899;50.352;19.390;2023-07-16T12:30:48;97748.08;;;45.24;26.85
50011;BME280;35899;50.352;19.390;2023-07-16T12:33:15;97744.00;;;45.12;26.47
50011;BME280;35899;50.352;19.390;2023-07-16T12:35:42;97737.75;;;44.25;26.91
50011;BME280;35899;50.352;19.390;2023-07-16T12:38:08;97736.08;;;43.42;27.22
50011;BME280;35899;50.352;19.390;2023-07-16T12:40:35;97737.99;;;42.33;27.94
50011;BME280;35899;50.352;19.390;2023-07-16T12:43:01;97736.38;;;41.33;28.34
50011;BME280;35899;50.352;19.390;2023-07-16T12:45:28;97734.42;;;40.43;29.41
50011;BME280;35899;50.352;19.390;2023-07-16T12:47:54;97733.19;;;39.82;30.26
50011;BME280;35899;50.352;19.390;2023-07-16T12:50:21;97727.02;;;39.18;30.96
50011;BME280;35899;50.352;19.390;2023-07-16T12:52:47;97728.86;;;39.76;31.46
50011;BME280;35899;50.352;19.390;2023-07-16T12:55:14;97724.96;;;41.47;30.53
50011;BME280;35899;50.352;19.390;2023-07-16T12:57:40;97720.41;;;42.68;29.52
50011;BME280;35899;50.352;19.390;2023-07-16T13:00:07;97720.54;;;43.21;29.09
50011;BME280;35899;50.352;19.390;2023-07-16T13:02:34;97724.31;;;44.60;27.58
50011;BME280;35899;50.352;19.390;2023-07-16T13:05:01;97723.77;;;45.48;26.80